sensor_id;sensor_type;location;lat;lon;timestamp;P1;durP1;ratioP1;P2;durP2;ratioP2
31262;SDS011;17892;52.080;9.006;2023-06-22T00:01:42;4.78;;;2.85;;
31262;SDS011;17892;52.080;9.006;2023-06-22T00:04:08;6.18;;;3.15;;
31262;SDS011;17892;52.080;9.006;2023-06-22T00:06:33;6.20;;;3.60;;
31262;SDS011;17892;52.080;9.006;2023-06-22T00:08:59;6.53;;;3.63;;
31262;SDS011;17892;52.080;9.006;2023-06-22T00:11:24;6.25;;;3.47;;
31262;SDS011;17892;52.080;9.006;2023-06-22T00:13:50;5.53;;;3.42;;
31262;SDS011;17892;52.080;9.006;2023-06-22T00:16:16;5.55;;;3.00;;
31262;SDS011;17892;52.080;9.006;2023-06-22T00:18:41;4.65;;;3.20;;
31262;SDS011;17892;52.080;9.006;2023-06-22T00:21:11;4.95;;;3.08;;
31262;SDS011;17892;52.080;9.006;2023-06-22T00:23:38;5.97;;;2.67;;
31262;SDS011;17892;52.080;9.006;2023-06-22T00:26:03;5.30;;;2.58;;
31262;SDS011;17892;52.080;9.006;2023-06-22T00:28:29;5.75;;;2.97;;
31262;SDS011;17892;52.080;9.006;2023-06-22T00:30:55;4.90;;;2.97;;
31262;SDS011;17892;52.080;9.006;2023-06-22T00:33:21;6.18;;;2.95;;
31262;SDS011;17892;52.080;9.006;2023-06-22T00:35:46;6.32;;;2.88;;
31262;SDS011;17892;52.080;9.006;2023-06-22T00:38:12;6.13;;;3.03;;
31262;SDS011;17892;52.080;9.006;2023-06-22T00:40:38;5.18;;;3.33;;
31262;SDS011;17892;52.080;9.006;2023-06-22T00:43:04;5.70;;;3.25;;
31262;SDS011;17892;52.080;9.006;2023-06-22T00:45:30;4.80;;;3.03;;
31262;SDS011;17892;52.080;9.006;2023-06-22T00:47:56;6.53;;;3.17;;
31262;SDS011;17892;52.080;9.006;2023-06-22T00:50:24;6.95;;;3.38;;
31262;SDS011;17892;52.080;9.006;2023-06-22T00:52:53;8.95;;;3.78;;
31262;SDS011;17892;52.080;9.006;2023-06-22T00:55:23;5.45;;;3.40;;
31262;SDS011;17892;52.080;9.006;2023-06-22T00:57:50;6.40;;;2.72;;
31262;SDS011;17892;52.080;9.006;2023-06-22T01:00:21;4.90;;;3.15;;
31262;SDS011;17892;52.080;9.006;2023-06-22T01:02:50;5.20;;;2.85;;
31262;SDS011;17892;52.080;9.006;2023-06-22T01:05:18;4.07;;;2.70;;
31262;SDS011;17892;52.080;9.006;2023-06-22T01:07:55;6.85;;;2.78;;
31262;SDS011;17892;52.080;9.006;2023-06-22T01:13:35;4.93;;;2.80;;
31262;SDS011;17892;52.080;9.006;2023-06-22T01:16:21;6.20;;;2.90;;
31262;SDS011;17892;52.080;9.006;2023-06-22T01:18:55;6.20;;;2.92;;
31262;SDS011;17892;52.080;9.006;2023-06-22T01:21:27;5.32;;;2.97;;
31262;SDS011;17892;52.080;9.006;2023-06-22T01:30:11;5.70;;;2.70;;
31262;SDS011;17892;52.080;9.006;2023-06-22T01:32:41;4.68;;;2.90;;
31262;SDS011;17892;52.080;9.006;2023-06-22T01:35:08;4.72;;;2.88;;
31262;SDS011;17892;52.080;9.006;2023-06-22T01:37:35;5.90;;;3.38;;
31262;SDS011;17892;52.080;9.006;2023-06-22T01:40:03;5.25;;;2.92;;
31262;SDS011;17892;52.080;9.006;2023-06-22T01:42:33;9.80;;;3.30;;
31262;SDS011;17892;52.080;9.006;2023-06-22T01:45:00;6.40;;;3.20;;
31262;SDS011;17892;52.080;9.006;2023-06-22T01:47:27;6.38;;;3.15;;
31262;SDS011;17892;52.080;9.006;2023-06-22T01:49:55;5.35;;;2.53;;
31262;SDS011;17892;52.080;9.006;2023-06-22T01:52:21;5.47;;;3.05;;
31262;SDS011;17892;52.080;9.006;2023-06-22T01:54:47;4.45;;;2.92;;
31262;SDS011;17892;52.080;9.006;2023-06-22T01:57:13;4.75;;;2.58;;
31262;SDS011;17892;52.080;9.006;2023-06-22T01:59:40;6.55;;;3.42;;
31262;SDS011;17892;52.080;9.006;2023-06-22T02:02:29;5.43;;;2.95;;
31262;SDS011;17892;52.080;9.006;2023-06-22T02:05:07;5.88;;;3.00;;
31262;SDS011;17892;52.080;9.006;2023-06-22T02:07:38;5.65;;;3.30;;
31262;SDS011;17892;52.080;9.006;2023-06-22T02:10:10;7.80;;;3.33;;
31262;SDS011;17892;52.080;9.006;2023-06-22T02:12:41;6.97;;;3.33;;
31262;SDS011;17892;52.080;9.006;2023-06-22T02:15:09;4.90;;;3.08;;
31262;SDS011;17892;52.080;9.006;2023-06-22T02:17:35;6.78;;;3.38;;
31262;SDS011;17892;52.080;9.006;2023-06-22T02:20:02;6.10;;;3.90;;
31262;SDS011;17892;52.080;9.006;2023-06-22T02:22:33;7.18;;;3.35;;
31262;SDS011;17892;52.080;9.006;2023-06-22T02:24:58;6.72;;;3.92;;
31262;SDS011;17892;52.080;9.006;2023-06-22T02:27:24;7.32;;;3.70;;
31262;SDS011;17892;52.080;9.006;2023-06-22T02:29:50;8.13;;;3.42;;
31262;SDS011;17892;52.080;9.006;2023-06-22T02:32:15;7.10;;;3.60;;
31262;SDS011;17892;52.080;9.006;2023-06-22T02:34:42;4.82;;;2.95;;
31262;SDS011;17892;52.080;9.006;2023-06-22T02:37:12;6.63;;;3.42;;
31262;SDS011;17892;52.080;9.006;2023-06-22T02:39:39;7.85;;;3.58;;
31262;SDS011;17892;52.080;9.006;2023-06-22T02:42:05;5.97;;;3.28;;
31262;SDS011;17892;52.080;9.006;2023-06-22T02:44:31;5.93;;;3.42;;
31262;SDS011;17892;52.080;9.006;2023-06-22T02:46:57;6.55;;;3.30;;
31262;SDS011;17892;52.080;9.006;2023-06-22T02:49:23;6.43;;;3.25;;
31262;SDS011;17892;52.080;9.006;2023-06-22T02:51:49;6.20;;;2.72;;
31262;SDS011;17892;52.080;9.006;2023-06-22T02:54:15;6.30;;;3.40;;
31262;SDS011;17892;52.080;9.006;2023-06-22T02:56:42;5.68;;;3.28;;
31262;SDS011;17892;52.080;9.006;2023-06-22T02:59:11;5.03;;;2.80;;
31262;SDS011;17892;52.080;9.006;2023-06-22T03:01:37;6.03;;;3.33;;
31262;SDS011;17892;52.080;9.006;2023-06-22T03:04:05;7.03;;;3.17;;
31262;SDS011;17892;52.080;9.006;2023-06-22T03:06:32;4.60;;;3.03;;
31262;SDS011;17892;52.080;9.006;2023-06-22T03:08:59;5.25;;;3.13;;
31262;SDS011;17892;52.080;9.006;2023-06-22T03:11:35;6.88;;;3.20;;
31262;SDS011;17892;52.080;9.006;2023-06-22T03:14:01;5.57;;;3.38;;
31262;SDS011;17892;52.080;9.006;2023-06-22T03:16:27;6.60;;;3.53;;
31262;SDS011;17892;52.080;9.006;2023-06-22T03:18:53;5.20;;;2.88;;
31262;SDS011;17892;52.080;9.006;2023-06-22T03:21:19;6.80;;;4.10;;
31262;SDS011;17892;52.080;9.006;2023-06-22T03:23:47;5.40;;;2.95;;
31262;SDS011;17892;52.080;9.006;2023-06-22T03:26:16;6.38;;;3.20;;
31262;SDS011;17892;52.080;9.006;2023-06-22T03:28:42;6.47;;;3.65;;
31262;SDS011;17892;52.080;9.006;2023-06-22T03:31:08;5.30;;;3.13;;
31262;SDS011;17892;52.080;9.006;2023-06-22T03:33:34;5.63;;;3.25;;
31262;SDS011;17892;52.080;9.006;2023-06-22T03:36:00;6.30;;;2.95;;
31262;SDS011;17892;52.080;9.006;2023-06-22T03:38:26;6.38;;;3.63;;
31262;SDS011;17892;52.080;9.006;2023-06-22T03:40:52;8.43;;;3.78;;
31262;SDS011;17892;52.080;9.006;2023-06-22T03:43:17;5.47;;;3.22;;
31262;SDS011;17892;52.080;9.006;2023-06-22T03:45:43;5.05;;;3.17;;
31262;SDS011;17892;52.080;9.006;2023-06-22T03:48:10;5.25;;;3.22;;
31262;SDS011;17892;52.080;9.006;2023-06-22T03:50:36;4.88;;;2.95;;
31262;SDS011;17892;52.080;9.006;2023-06-22T03:53:02;5.72;;;2.88;;
31262;SDS011;17892;52.080;9.006;2023-06-22T03:55:28;4.50;;;2.95;;
31262;SDS011;17892;52.080;9.006;2023-06-22T03:57:54;5.07;;;3.17;;
31262;SDS011;17892;52.080;9.006;2023-06-22T04:00:22;5.68;;;3.63;;
31262;SDS011;17892;52.080;9.006;2023-06-22T04:02:48;5.15;;;2.95;;
31262;SDS011;17892;52.080;9.006;2023-06-22T04:05:14;9.18;;;3.60;;
31262;SDS011;17892;52.080;9.006;2023-06-22T04:07:44;7.00;;;3.22;;
31262;SDS011;17892;52.080;9.006;2023-06-22T04:10:09;5.55;;;3.20;;
31262;SDS011;17892;52.080;9.006;2023-06-22T04:12:35;6.70;;;3.47;;
31262;SDS011;17892;52.080;9.006;2023-06-22T04:15:01;5.30;;;3.90;;
31262;SDS011;17892;52.080;9.006;2023-06-22T04:17:27;6.60;;;3.88;;
31262;SDS011;17892;52.080;9.006;2023-06-22T04:19:53;7.28;;;3.67;;
31262;SDS011;17892;52.080;9.006;2023-06-22T04:22:18;5.93;;;3.80;;
31262;SDS011;17892;52.080;9.006;2023-06-22T04:24:44;6.28;;;3.72;;
31262;SDS011;17892;52.080;9.006;2023-06-22T04:27:10;5.53;;;3.28;;
31262;SDS011;17892;52.080;9.006;2023-06-22T04:29:36;7.40;;;3.75;;
31262;SDS011;17892;52.080;9.006;2023-06-22T04:32:03;6.85;;;3.33;;
31262;SDS011;17892;52.080;9.006;2023-06-22T04:34:30;5.78;;;3.55;;
31262;SDS011;17892;52.080;9.006;2023-06-22T04:36:56;5.30;;;3.00;;
31262;SDS011;17892;52.080;9.006;2023-06-22T04:39:22;4.85;;;3.15;;
31262;SDS011;17892;52.080;9.006;2023-06-22T04:41:48;5.65;;;3.42;;
31262;SDS011;17892;52.080;9.006;2023-06-22T04:44:17;6.18;;;3.10;;
31262;SDS011;17892;52.080;9.006;2023-06-22T04:46:59;5.85;;;3.92;;
31262;SDS011;17892;52.080;9.006;2023-06-22T04:49:33;5.20;;;3.40;;
31262;SDS011;17892;52.080;9.006;2023-06-22T04:52:06;5.45;;;3.13;;
31262;SDS011;17892;52.080;9.006;2023-06-22T04:54:33;11.73;;;3.67;;
31262;SDS011;17892;52.080;9.006;2023-06-22T04:57:01;6.75;;;3.58;;
31262;SDS011;17892;52.080;9.006;2023-06-22T04:59:30;7.22;;;4.20;;
31262;SDS011;17892;52.080;9.006;2023-06-22T05:01:57;7.10;;;4.20;;
31262;SDS011;17892;52.080;9.006;2023-06-22T05:04:25;5.43;;;3.95;;
31262;SDS011;17892;52.080;9.006;2023-06-22T05:06:53;5.13;;;3.40;;
31262;SDS011;17892;52.080;9.006;2023-06-22T05:09:19;5.45;;;3.63;;
31262;SDS011;17892;52.080;9.006;2023-06-22T05:11:46;5.60;;;3.63;;
31262;SDS011;17892;52.080;9.006;2023-06-22T05:14:12;5.40;;;3.47;;
31262;SDS011;17892;52.080;9.006;2023-06-22T05:16:38;6.50;;;4.65;;
31262;SDS011;17892;52.080;9.006;2023-06-22T05:19:05;6.90;;;4.65;;
31262;SDS011;17892;52.080;9.006;2023-06-22T05:21:31;5.80;;;4.00;;
31262;SDS011;17892;52.080;9.006;2023-06-22T05:23:57;6.45;;;4.78;;
31262;SDS011;17892;52.080;9.006;2023-06-22T05:26:27;6.45;;;4.40;;
31262;SDS011;17892;52.080;9.006;2023-06-22T05:28:59;6.32;;;4.15;;
31262;SDS011;17892;52.080;9.006;2023-06-22T05:31:26;7.05;;;3.97;;
31262;SDS011;17892;52.080;9.006;2023-06-22T05:33:52;7.22;;;4.68;;
31262;SDS011;17892;52.080;9.006;2023-06-22T05:36:19;7.30;;;4.22;;
31262;SDS011;17892;52.080;9.006;2023-06-22T05:38:46;6.78;;;4.43;;
31262;SDS011;17892;52.080;9.006;2023-06-22T05:41:12;7.53;;;4.45;;
31262;SDS011;17892;52.080;9.006;2023-06-22T05:43:39;7.57;;;4.60;;
31262;SDS011;17892;52.080;9.006;2023-06-22T05:46:05;7.72;;;4.93;;
31262;SDS011;17892;52.080;9.006;2023-06-22T05:48:31;7.20;;;5.00;;
31262;SDS011;17892;52.080;9.006;2023-06-22T05:50:57;6.65;;;4.43;;
31262;SDS011;17892;52.080;9.006;2023-06-22T05:53:22;6.07;;;4.32;;
31262;SDS011;17892;52.080;9.006;2023-06-22T05:55:48;5.22;;;4.00;;
31262;SDS011;17892;52.080;9.006;2023-06-22T05:58:14;6.65;;;4.60;;
31262;SDS011;17892;52.080;9.006;2023-06-22T06:00:40;7.97;;;4.57;;
31262;SDS011;17892;52.080;9.006;2023-06-22T06:03:06;5.60;;;4.32;;
31262;SDS011;17892;52.080;9.006;2023-06-22T06:05:33;5.88;;;4.30;;
31262;SDS011;17892;52.080;9.006;2023-06-22T06:07:59;6.32;;;4.47;;
31262;SDS011;17892;52.080;9.006;2023-06-22T06:10:26;6.85;;;4.70;;
31262;SDS011;17892;52.080;9.006;2023-06-22T06:12:54;6.45;;;4.30;;
31262;SDS011;17892;52.080;9.006;2023-06-22T06:15:20;5.72;;;4.60;;
31262;SDS011;17892;52.080;9.006;2023-06-22T06:20:15;5.47;;;4.18;;
31262;SDS011;17892;52.080;9.006;2023-06-22T06:22:43;6.30;;;4.40;;
31262;SDS011;17892;52.080;9.006;2023-06-22T06:25:09;8.10;;;6.45;;
31262;SDS011;17892;52.080;9.006;2023-06-22T06:27:40;6.85;;;5.32;;
31262;SDS011;17892;52.080;9.006;2023-06-22T06:30:11;7.75;;;5.20;;
31262;SDS011;17892;52.080;9.006;2023-06-22T06:32:38;6.68;;;4.93;;
31262;SDS011;17892;52.080;9.006;2023-06-22T06:35:07;8.60;;;5.72;;
31262;SDS011;17892;52.080;9.006;2023-06-22T06:37:38;6.72;;;5.60;;
31262;SDS011;17892;52.080;9.006;2023-06-22T06:40:09;6.60;;;5.32;;
31262;SDS011;17892;52.080;9.006;2023-06-22T06:42:37;7.15;;;6.05;;
31262;SDS011;17892;52.080;9.006;2023-06-22T06:45:05;9.20;;;6.38;;
31262;SDS011;17892;52.080;9.006;2023-06-22T06:47:34;6.90;;;5.38;;
31262;SDS011;17892;52.080;9.006;2023-06-22T06:50:00;7.28;;;5.72;;
31262;SDS011;17892;52.080;9.006;2023-06-22T06:52:29;6.40;;;5.10;;
31262;SDS011;17892;52.080;9.006;2023-06-22T06:54:54;7.22;;;5.00;;
31262;SDS011;17892;52.080;9.006;2023-06-22T06:57:20;6.57;;;5.20;;
31262;SDS011;17892;52.080;9.006;2023-06-22T06:59:47;6.55;;;5.32;;
31262;SDS011;17892;52.080;9.006;2023-06-22T07:02:14;7.03;;;5.40;;
31262;SDS011;17892;52.080;9.006;2023-06-22T07:04:43;6.80;;;5.38;;
31262;SDS011;17892;52.080;9.006;2023-06-22T07:07:09;7.03;;;5.50;;
31262;SDS011;17892;52.080;9.006;2023-06-22T07:09:35;6.88;;;5.50;;
31262;SDS011;17892;52.080;9.006;2023-06-22T07:12:01;6.00;;;5.13;;
31262;SDS011;17892;52.080;9.006;2023-06-22T07:14:26;5.97;;;4.70;;
31262;SDS011;17892;52.080;9.006;2023-06-22T07:16:52;7.22;;;5.25;;
31262;SDS011;17892;52.080;9.006;2023-06-22T07:19:23;6.53;;;5.00;;
31262;SDS011;17892;52.080;9.006;2023-06-22T07:21:51;5.78;;;4.65;;
31262;SDS011;17892;52.080;9.006;2023-06-22T07:24:16;6.32;;;4.78;;
31262;SDS011;17892;52.080;9.006;2023-06-22T07:26:43;5.97;;;5.38;;
31262;SDS011;17892;52.080;9.006;2023-06-22T07:29:10;6.30;;;5.10;;
31262;SDS011;17892;52.080;9.006;2023-06-22T07:31:36;5.97;;;4.88;;
31262;SDS011;17892;52.080;9.006;2023-06-22T07:34:02;5.35;;;4.45;;
31262;SDS011;17892;52.080;9.006;2023-06-22T07:36:29;5.47;;;4.82;;
31262;SDS011;17892;52.080;9.006;2023-06-22T07:38:55;5.45;;;4.28;;
31262;SDS011;17892;52.080;9.006;2023-06-22T07:41:20;5.75;;;4.50;;
31262;SDS011;17892;52.080;9.006;2023-06-22T07:43:46;5.72;;;4.25;;
31262;SDS011;17892;52.080;9.006;2023-06-22T07:46:12;8.05;;;5.40;;
31262;SDS011;17892;52.080;9.006;2023-06-22T07:48:38;5.78;;;4.63;;
31262;SDS011;17892;52.080;9.006;2023-06-22T07:51:04;5.93;;;4.68;;
31262;SDS011;17892;52.080;9.006;2023-06-22T07:53:31;6.72;;;4.93;;
31262;SDS011;17892;52.080;9.006;2023-06-22T07:55:56;6.93;;;5.93;;
31262;SDS011;17892;52.080;9.006;2023-06-22T07:58:22;5.95;;;4.72;;
31262;SDS011;17892;52.080;9.006;2023-06-22T08:00:48;5.60;;;4.82;;
31262;SDS011;17892;52.080;9.006;2023-06-22T08:03:14;8.65;;;4.85;;
31262;SDS011;17892;52.080;9.006;2023-06-22T08:05:40;6.05;;;4.70;;
31262;SDS011;17892;52.080;9.006;2023-06-22T08:08:06;7.00;;;4.50;;
31262;SDS011;17892;52.080;9.006;2023-06-22T08:10:31;6.30;;;4.70;;
31262;SDS011;17892;52.080;9.006;2023-06-22T08:12:57;5.88;;;4.55;;
31262;SDS011;17892;52.080;9.006;2023-06-22T08:15:25;6.13;;;5.07;;
31262;SDS011;17892;52.080;9.006;2023-06-22T08:17:51;7.25;;;6.45;;
31262;SDS011;17892;52.080;9.006;2023-06-22T08:20:17;6.40;;;4.95;;
31262;SDS011;17892;52.080;9.006;2023-06-22T08:22:43;6.45;;;5.55;;
31262;SDS011;17892;52.080;9.006;2023-06-22T08:25:09;5.72;;;4.78;;
31262;SDS011;17892;52.080;9.006;2023-06-22T08:27:36;6.57;;;5.13;;
31262;SDS011;17892;52.080;9.006;2023-06-22T08:30:02;6.32;;;5.13;;
31262;SDS011;17892;52.080;9.006;2023-06-22T08:32:29;7.47;;;5.22;;
31262;SDS011;17892;52.080;9.006;2023-06-22T08:34:55;6.90;;;6.18;;
31262;SDS011;17892;52.080;9.006;2023-06-22T08:37:22;8.18;;;5.57;;
31262;SDS011;17892;52.080;9.006;2023-06-22T08:39:56;7.07;;;5.55;;
31262;SDS011;17892;52.080;9.006;2023-06-22T08:42:25;7.65;;;5.90;;
31262;SDS011;17892;52.080;9.006;2023-06-22T08:44:51;6.55;;;5.30;;
31262;SDS011;17892;52.080;9.006;2023-06-22T08:47:18;8.15;;;5.90;;
31262;SDS011;17892;52.080;9.006;2023-06-22T08:49:44;7.43;;;6.63;;
31262;SDS011;17892;52.080;9.006;2023-06-22T08:52:10;6.88;;;6.13;;
31262;SDS011;17892;52.080;9.006;2023-06-22T08:54:36;7.03;;;5.40;;
31262;SDS011;17892;52.080;9.006;2023-06-22T08:57:02;8.80;;;6.72;;
31262;SDS011;17892;52.080;9.006;2023-06-22T08:59:28;8.68;;;6.45;;
31262;SDS011;17892;52.080;9.006;2023-06-22T09:01:53;6.35;;;5.38;;
31262;SDS011;17892;52.080;9.006;2023-06-22T09:04:19;8.23;;;5.50;;
31262;SDS011;17892;52.080;9.006;2023-06-22T09:06:47;6.90;;;5.60;;
31262;SDS011;17892;52.080;9.006;2023-06-22T09:09:17;6.40;;;5.03;;
31262;SDS011;17892;52.080;9.006;2023-06-22T09:11:43;6.15;;;4.90;;
31262;SDS011;17892;52.080;9.006;2023-06-22T09:14:10;6.68;;;5.18;;
31262;SDS011;17892;52.080;9.006;2023-06-22T09:16:36;7.25;;;4.95;;
31262;SDS011;17892;52.080;9.006;2023-06-22T09:19:02;6.55;;;4.97;;
31262;SDS011;17892;52.080;9.006;2023-06-22T09:21:28;7.18;;;5.50;;
31262;SDS011;17892;52.080;9.006;2023-06-22T09:23:54;6.53;;;5.07;;
31262;SDS011;17892;52.080;9.006;2023-06-22T09:26:20;6.50;;;4.95;;
31262;SDS011;17892;52.080;9.006;2023-06-22T09:28:46;6.50;;;4.95;;
31262;SDS011;17892;52.080;9.006;2023-06-22T09:31:12;5.90;;;4.78;;
31262;SDS011;17892;52.080;9.006;2023-06-22T09:33:39;5.97;;;4.80;;
31262;SDS011;17892;52.080;9.006;2023-06-22T09:36:06;5.90;;;4.93;;
31262;SDS011;17892;52.080;9.006;2023-06-22T09:38:36;6.00;;;4.65;;
31262;SDS011;17892;52.080;9.006;2023-06-22T09:41:02;6.07;;;4.80;;
31262;SDS011;17892;52.080;9.006;2023-06-22T09:43:28;6.28;;;4.95;;
31262;SDS011;17892;52.080;9.006;2023-06-22T09:45:56;6.53;;;5.22;;
31262;SDS011;17892;52.080;9.006;2023-06-22T09:48:21;5.57;;;4.60;;
31262;SDS011;17892;52.080;9.006;2023-06-22T09:50:48;5.75;;;4.13;;
31262;SDS011;17892;52.080;9.006;2023-06-22T09:53:14;6.03;;;4.50;;
31262;SDS011;17892;52.080;9.006;2023-06-22T09:55:40;8.20;;;4.65;;
31262;SDS011;17892;52.080;9.006;2023-06-22T09:58:06;5.60;;;4.25;;
31262;SDS011;17892;52.080;9.006;2023-06-22T10:00:32;6.90;;;5.05;;
31262;SDS011;17892;52.080;9.006;2023-06-22T10:02:57;5.93;;;4.75;;
31262;SDS011;17892;52.080;9.006;2023-06-22T10:05:23;7.18;;;5.00;;
31262;SDS011;17892;52.080;9.006;2023-06-22T10:07:50;6.35;;;4.72;;
31262;SDS011;17892;52.080;9.006;2023-06-22T10:10:15;6.10;;;4.70;;
31262;SDS011;17892;52.080;9.006;2023-06-22T10:12:48;5.72;;;4.53;;
31262;SDS011;17892;52.080;9.006;2023-06-22T10:15:21;7.35;;;5.68;;
31262;SDS011;17892;52.080;9.006;2023-06-22T10:17:47;6.15;;;5.00;;
31262;SDS011;17892;52.080;9.006;2023-06-22T10:20:12;8.02;;;6.07;;
31262;SDS011;17892;52.080;9.006;2023-06-22T10:22:39;6.28;;;5.28;;
31262;SDS011;17892;52.080;9.006;2023-06-22T10:25:06;6.13;;;5.00;;
31262;SDS011;17892;52.080;9.006;2023-06-22T10:27:33;6.30;;;5.00;;
31262;SDS011;17892;52.080;9.006;2023-06-22T10:29:59;5.60;;;4.63;;
31262;SDS011;17892;52.080;9.006;2023-06-22T10:32:25;5.78;;;4.63;;
31262;SDS011;17892;52.080;9.006;2023-06-22T10:34:50;5.43;;;4.18;;
31262;SDS011;17892;52.080;9.006;2023-06-22T10:37:16;5.25;;;4.53;;
31262;SDS011;17892;52.080;9.006;2023-06-22T10:39:42;5.97;;;4.90;;
31262;SDS011;17892;52.080;9.006;2023-06-22T10:42:07;5.65;;;5.03;;
31262;SDS011;17892;52.080;9.006;2023-06-22T10:44:33;6.85;;;5.15;;
31262;SDS011;17892;52.080;9.006;2023-06-22T10:46:59;5.00;;;4.50;;
31262;SDS011;17892;52.080;9.006;2023-06-22T10:49:24;6.80;;;5.68;;
31262;SDS011;17892;52.080;9.006;2023-06-22T10:51:50;6.40;;;4.50;;
31262;SDS011;17892;52.080;9.006;2023-06-22T10:54:16;5.68;;;4.85;;
31262;SDS011;17892;52.080;9.006;2023-06-22T10:56:43;5.80;;;4.10;;
31262;SDS011;17892;52.080;9.006;2023-06-22T10:59:09;5.18;;;4.05;;
31262;SDS011;17892;52.080;9.006;2023-06-22T11:01:34;5.18;;;4.18;;
31262;SDS011;17892;52.080;9.006;2023-06-22T11:04:01;6.75;;;5.13;;
31262;SDS011;17892;52.080;9.006;2023-06-22T11:06:28;5.60;;;4.95;;
31262;SDS011;17892;52.080;9.006;2023-06-22T11:08:53;5.80;;;5.20;;
31262;SDS011;17892;52.080;9.006;2023-06-22T11:11:19;5.50;;;4.78;;
31262;SDS011;17892;52.080;9.006;2023-06-22T11:13:45;5.50;;;4.80;;
31262;SDS011;17892;52.080;9.006;2023-06-22T11:16:11;5.97;;;4.70;;
31262;SDS011;17892;52.080;9.006;2023-06-22T11:18:36;5.65;;;4.78;;
31262;SDS011;17892;52.080;9.006;2023-06-22T11:21:02;6.53;;;4.97;;
31262;SDS011;17892;52.080;9.006;2023-06-22T11:23:28;5.32;;;4.15;;
31262;SDS011;17892;52.080;9.006;2023-06-22T11:25:54;6.18;;;4.40;;
31262;SDS011;17892;52.080;9.006;2023-06-22T11:28:20;4.80;;;4.22;;
31262;SDS011;17892;52.080;9.006;2023-06-22T11:30:45;6.15;;;4.53;;
31262;SDS011;17892;52.080;9.006;2023-06-22T11:33:11;5.85;;;4.30;;
31262;SDS011;17892;52.080;9.006;2023-06-22T11:35:37;5.55;;;4.43;;
31262;SDS011;17892;52.080;9.006;2023-06-22T11:38:03;5.72;;;4.50;;
31262;SDS011;17892;52.080;9.006;2023-06-22T11:40:29;6.35;;;4.60;;
31262;SDS011;17892;52.080;9.006;2023-06-22T11:42:55;6.78;;;5.70;;
31262;SDS011;17892;52.080;9.006;2023-06-22T11:45:21;5.50;;;4.40;;
31262;SDS011;17892;52.080;9.006;2023-06-22T11:47:47;5.10;;;4.30;;
31262;SDS011;17892;52.080;9.006;2023-06-22T11:50:12;5.30;;;4.40;;
31262;SDS011;17892;52.080;9.006;2023-06-22T11:52:38;5.85;;;4.60;;
31262;SDS011;17892;52.080;9.006;2023-06-22T11:55:04;5.72;;;4.10;;
31262;SDS011;17892;52.080;9.006;2023-06-22T11:57:35;4.95;;;4.10;;
31262;SDS011;17892;52.080;9.006;2023-06-22T12:00:05;7.63;;;5.68;;
31262;SDS011;17892;52.080;9.006;2023-06-22T12:02:41;5.55;;;4.60;;
31262;SDS011;17892;52.080;9.006;2023-06-22T12:05:07;6.03;;;4.57;;
31262;SDS011;17892;52.080;9.006;2023-06-22T12:07:33;5.75;;;4.68;;
31262;SDS011;17892;52.080;9.006;2023-06-22T12:09:59;5.07;;;4.20;;
31262;SDS011;17892;52.080;9.006;2023-06-22T12:12:24;6.57;;;4.28;;
31262;SDS011;17892;52.080;9.006;2023-06-22T12:14:50;6.25;;;5.07;;
31262;SDS011;17892;52.080;9.006;2023-06-22T12:17:16;6.90;;;4.53;;
31262;SDS011;17892;52.080;9.006;2023-06-22T12:19:41;6.38;;;5.43;;
31262;SDS011;17892;52.080;9.006;2023-06-22T12:22:07;6.78;;;5.65;;
31262;SDS011;17892;52.080;9.006;2023-06-22T12:24:33;6.90;;;5.57;;
31262;SDS011;17892;52.080;9.006;2023-06-22T12:26:58;6.90;;;5.72;;
31262;SDS011;17892;52.080;9.006;2023-06-22T12:29:24;9.15;;;5.00;;
31262;SDS011;17892;52.080;9.006;2023-06-22T12:31:50;6.43;;;4.57;;
31262;SDS011;17892;52.080;9.006;2023-06-22T12:34:15;6.38;;;4.82;;
31262;SDS011;17892;52.080;9.006;2023-06-22T12:36:41;6.53;;;4.70;;
31262;SDS011;17892;52.080;9.006;2023-06-22T12:39:07;5.75;;;4.97;;
31262;SDS011;17892;52.080;9.006;2023-06-22T12:41:32;8.82;;;5.85;;
31262;SDS011;17892;52.080;9.006;2023-06-22T12:43:58;5.35;;;4.45;;
31262;SDS011;17892;52.080;9.006;2023-06-22T12:46:23;5.57;;;4.50;;
31262;SDS011;17892;52.080;9.006;2023-06-22T12:48:49;5.63;;;4.25;;
31262;SDS011;17892;52.080;9.006;2023-06-22T12:51:21;5.32;;;4.32;;
31262;SDS011;17892;52.080;9.006;2023-06-22T12:53:48;5.30;;;4.40;;
31262;SDS011;17892;52.080;9.006;2023-06-22T12:56:13;6.40;;;4.40;;
31262;SDS011;17892;52.080;9.006;2023-06-22T12:58:39;6.03;;;4.35;;
31262;SDS011;17892;52.080;9.006;2023-06-22T13:01:05;5.50;;;4.35;;
31262;SDS011;17892;52.080;9.006;2023-06-22T13:03:31;5.80;;;4.28;;
31262;SDS011;17892;52.080;9.006;2023-06-22T13:05:56;5.57;;;4.03;;
31262;SDS011;17892;52.080;9.006;2023-06-22T13:08:22;5.47;;;3.88;;
31262;SDS011;17892;52.080;9.006;2023-06-22T13:10:48;6.00;;;4.22;;
31262;SDS011;17892;52.080;9.006;2023-06-22T13:13:13;5.70;;;4.13;;
31262;SDS011;17892;52.080;9.006;2023-06-22T13:15:39;4.90;;;3.95;;
31262;SDS011;17892;52.080;9.006;2023-06-22T13:18:05;6.50;;;4.47;;
31262;SDS011;17892;52.080;9.006;2023-06-22T13:20:30;5.85;;;4.20;;
31262;SDS011;17892;52.080;9.006;2023-06-22T13:22:56;6.78;;;5.32;;
31262;SDS011;17892;52.080;9.006;2023-06-22T13:25:22;7.47;;;4.90;;
31262;SDS011;17892;52.080;9.006;2023-06-22T13:27:51;6.85;;;4.75;;
31262;SDS011;17892;52.080;9.006;2023-06-22T13:30:17;6.95;;;5.53;;
31262;SDS011;17892;52.080;9.006;2023-06-22T13:32:43;5.68;;;4.53;;
31262;SDS011;17892;52.080;9.006;2023-06-22T13:35:09;7.00;;;5.22;;
31262;SDS011;17892;52.080;9.006;2023-06-22T13:37:35;7.15;;;4.65;;
31262;SDS011;17892;52.080;9.006;2023-06-22T13:40:01;7.18;;;5.65;;
31262;SDS011;17892;52.080;9.006;2023-06-22T13:42:31;6.03;;;4.68;;
31262;SDS011;17892;52.080;9.006;2023-06-22T13:44:57;6.47;;;4.75;;
31262;SDS011;17892;52.080;9.006;2023-06-22T13:47:23;7.57;;;5.78;;
31262;SDS011;17892;52.080;9.006;2023-06-22T13:49:49;8.02;;;5.90;;
31262;SDS011;17892;52.080;9.006;2023-06-22T13:52:14;7.43;;;5.55;;
31262;SDS011;17892;52.080;9.006;2023-06-22T13:54:40;7.03;;;5.70;;
31262;SDS011;17892;52.080;9.006;2023-06-22T13:57:06;7.43;;;6.13;;
31262;SDS011;17892;52.080;9.006;2023-06-22T13:59:32;6.75;;;5.32;;
31262;SDS011;17892;52.080;9.006;2023-06-22T14:01:58;7.80;;;5.82;;
31262;SDS011;17892;52.080;9.006;2023-06-22T14:04:23;8.20;;;6.60;;
31262;SDS011;17892;52.080;9.006;2023-06-22T14:06:49;6.40;;;5.05;;
31262;SDS011;17892;52.080;9.006;2023-06-22T14:09:15;10.55;;;5.72;;
31262;SDS011;17892;52.080;9.006;2023-06-22T14:11:40;7.50;;;4.80;;
31262;SDS011;17892;52.080;9.006;2023-06-22T14:14:06;7.88;;;5.65;;
31262;SDS011;17892;52.080;9.006;2023-06-22T14:16:32;8.05;;;6.13;;
31262;SDS011;17892;52.080;9.006;2023-06-22T14:18:58;8.90;;;6.63;;
31262;SDS011;17892;52.080;9.006;2023-06-22T14:21:26;9.48;;;6.38;;
31262;SDS011;17892;52.080;9.006;2023-06-22T14:23:52;6.90;;;5.40;;
31262;SDS011;17892;52.080;9.006;2023-06-22T14:26:18;8.15;;;6.35;;
31262;SDS011;17892;52.080;9.006;2023-06-22T14:28:47;9.70;;;7.38;;
31262;SDS011;17892;52.080;9.006;2023-06-22T14:31:15;11.38;;;6.95;;
31262;SDS011;17892;52.080;9.006;2023-06-22T14:33:45;7.55;;;5.68;;
31262;SDS011;17892;52.080;9.006;2023-06-22T14:36:13;9.15;;;6.32;;
31262;SDS011;17892;52.080;9.006;2023-06-22T14:38:39;7.72;;;6.05;;
31262;SDS011;17892;52.080;9.006;2023-06-22T14:41:05;9.25;;;6.70;;
31262;SDS011;17892;52.080;9.006;2023-06-22T14:43:31;9.25;;;6.22;;
31262;SDS011;17892;52.080;9.006;2023-06-22T14:45:56;8.68;;;6.30;;
31262;SDS011;17892;52.080;9.006;2023-06-22T14:48:22;8.90;;;6.70;;
31262;SDS011;17892;52.080;9.006;2023-06-22T14:50:48;9.55;;;7.10;;
31262;SDS011;17892;52.080;9.006;2023-06-22T14:53:14;9.48;;;6.93;;
31262;SDS011;17892;52.080;9.006;2023-06-22T14:55:40;10.43;;;7.53;;
31262;SDS011;17892;52.080;9.006;2023-06-22T14:58:06;11.70;;;9.55;;